sensor_id;sensor_type;location;lat;lon;timestamp;P1;durP1;ratioP1;P2;durP2;ratioP2
31386;SDS011;69978;50.096;8.448;2024-03-06T00:00:47;2.40;;;0.40;;
31386;SDS011;69978;50.096;8.448;2024-03-06T00:03:12;1.52;;;0.60;;
31386;SDS011;69978;50.096;8.448;2024-03-06T00:05:38;2.55;;;0.50;;
31386;SDS011;69978;50.096;8.448;2024-03-06T00:08:03;3.55;;;0.60;;
31386;SDS011;69978;50.096;8.448;2024-03-06T00:10:29;0.65;;;0.35;;
31386;SDS011;69978;50.096;8.448;2024-03-06T00:12:55;1.98;;;0.80;;
31386;SDS011;69978;50.096;8.448;2024-03-06T00:15:21;2.70;;;0.70;;
31386;SDS011;69978;50.096;8.448;2024-03-06T00:17:46;5.07;;;0.82;;
31386;SDS011;69978;50.096;8.448;2024-03-06T00:20:12;1.63;;;0.90;;
31386;SDS011;69978;50.096;8.448;2024-03-06T00:22:39;1.80;;;0.80;;
31386;SDS011;69978;50.096;8.448;2024-03-06T00:25:05;2.78;;;0.90;;
31386;SDS011;69978;50.096;8.448;2024-03-06T00:27:30;5.20;;;0.98;;
31386;SDS011;69978;50.096;8.448;2024-03-06T00:29:56;2.33;;;0.77;;
31386;SDS011;69978;50.096;8.448;2024-03-06T00:32:22;3.00;;;1.02;;
31386;SDS011;69978;50.096;8.448;2024-03-06T00:34:48;3.30;;;0.90;;
31386;SDS011;69978;50.096;8.448;2024-03-06T00:37:14;1.95;;;0.60;;
31386;SDS011;69978;50.096;8.448;2024-03-06T00:39:40;2.70;;;0.70;;
31386;SDS011;69978;50.096;8.448;2024-03-06T00:42:05;3.53;;;0.80;;
31386;SDS011;69978;50.096;8.448;2024-03-06T00:44:33;4.00;;;0.90;;
31386;SDS011;69978;50.096;8.448;2024-03-06T00:46:59;1.42;;;0.77;;
31386;SDS011;69978;50.096;8.448;2024-03-06T00:49:25;1.70;;;0.80;;
31386;SDS011;69978;50.096;8.448;2024-03-06T00:51:51;4.88;;;1.00;;
31386;SDS011;69978;50.096;8.448;2024-03-06T00:54:16;4.53;;;0.70;;
31386;SDS011;69978;50.096;8.448;2024-03-06T00:56:42;2.35;;;0.80;;
31386;SDS011;69978;50.096;8.448;2024-03-06T00:59:07;1.98;;;0.90;;
31386;SDS011;69978;50.096;8.448;2024-03-06T01:01:33;2.50;;;0.82;;
31386;SDS011;69978;50.096;8.448;2024-03-06T01:03:58;4.13;;;1.02;;
31386;SDS011;69978;50.096;8.448;2024-03-06T01:06:24;4.75;;;1.00;;
31386;SDS011;69978;50.096;8.448;2024-03-06T01:08:50;3.30;;;1.00;;
31386;SDS011;69978;50.096;8.448;2024-03-06T01:11:15;3.20;;;1.33;;
31386;SDS011;69978;50.096;8.448;2024-03-06T01:13:41;1.90;;;0.93;;
31386;SDS011;69978;50.096;8.448;2024-03-06T01:16:06;1.98;;;0.90;;
31386;SDS011;69978;50.096;8.448;2024-03-06T01:18:32;2.25;;;1.00;;
31386;SDS011;69978;50.096;8.448;2024-03-06T01:20:57;4.43;;;1.20;;
31386;SDS011;69978;50.096;8.448;2024-03-06T01:23:23;4.68;;;1.25;;
31386;SDS011;69978;50.096;8.448;2024-03-06T01:25:49;2.95;;;1.20;;
31386;SDS011;69978;50.096;8.448;2024-03-06T01:28:14;5.95;;;1.48;;
31386;SDS011;69978;50.096;8.448;2024-03-06T01:30:40;4.32;;;1.40;;
31386;SDS011;69978;50.096;8.448;2024-03-06T01:33:05;4.82;;;1.50;;
31386;SDS011;69978;50.096;8.448;2024-03-06T01:35:31;3.53;;;1.25;;
31386;SDS011;69978;50.096;8.448;2024-03-06T01:37:57;2.22;;;1.30;;
31386;SDS011;69978;50.096;8.448;2024-03-06T01:40:23;4.30;;;1.58;;
31386;SDS011;69978;50.096;8.448;2024-03-06T01:42:48;2.90;;;1.35;;
31386;SDS011;69978;50.096;8.448;2024-03-06T01:45:14;3.47;;;1.40;;
31386;SDS011;69978;50.096;8.448;2024-03-06T01:47:40;3.70;;;1.23;;
31386;SDS011;69978;50.096;8.448;2024-03-06T01:50:06;2.90;;;1.33;;
31386;SDS011;69978;50.096;8.448;2024-03-06T01:52:34;2.25;;;1.17;;
31386;SDS011;69978;50.096;8.448;2024-03-06T01:55:01;3.50;;;1.20;;
31386;SDS011;69978;50.096;8.448;2024-03-06T01:57:28;3.15;;;1.30;;
31386;SDS011;69978;50.096;8.448;2024-03-06T01:59:54;2.08;;;1.20;;
31386;SDS011;69978;50.096;8.448;2024-03-06T02:02:20;2.55;;;1.10;;
31386;SDS011;69978;50.096;8.448;2024-03-06T02:04:46;3.22;;;1.30;;
31386;SDS011;69978;50.096;8.448;2024-03-06T02:07:11;3.83;;;1.40;;
31386;SDS011;69978;50.096;8.448;2024-03-06T02:09:39;4.95;;;1.48;;
31386;SDS011;69978;50.096;8.448;2024-03-06T02:12:05;2.72;;;1.30;;
31386;SDS011;69978;50.096;8.448;2024-03-06T02:14:33;4.93;;;1.23;;
31386;SDS011;69978;50.096;8.448;2024-03-06T02:16:59;3.72;;;1.48;;
31386;SDS011;69978;50.096;8.448;2024-03-06T02:19:36;4.25;;;1.33;;
31386;SDS011;69978;50.096;8.448;2024-03-06T02:22:06;4.90;;;1.23;;
31386;SDS011;69978;50.096;8.448;2024-03-06T02:24:33;2.95;;;1.20;;
31386;SDS011;69978;50.096;8.448;2024-03-06T02:26:59;3.22;;;1.42;;
31386;SDS011;69978;50.096;8.448;2024-03-06T02:29:24;5.00;;;1.45;;
31386;SDS011;69978;50.096;8.448;2024-03-06T02:31:50;4.80;;;1.15;;
31386;SDS011;69978;50.096;8.448;2024-03-06T02:34:16;2.97;;;1.13;;
31386;SDS011;69978;50.096;8.448;2024-03-06T02:36:41;2.60;;;1.00;;
31386;SDS011;69978;50.096;8.448;2024-03-06T02:39:07;4.15;;;1.10;;
31386;SDS011;69978;50.096;8.448;2024-03-06T02:41:34;2.63;;;1.30;;
31386;SDS011;69978;50.096;8.448;2024-03-06T02:44:03;2.15;;;0.98;;
31386;SDS011;69978;50.096;8.448;2024-03-06T02:46:28;3.10;;;1.15;;
31386;SDS011;69978;50.096;8.448;2024-03-06T02:48:54;2.90;;;1.10;;
31386;SDS011;69978;50.096;8.448;2024-03-06T02:51:20;2.33;;;1.13;;
31386;SDS011;69978;50.096;8.448;2024-03-06T02:53:46;6.18;;;1.40;;
31386;SDS011;69978;50.096;8.448;2024-03-06T02:56:17;3.53;;;1.20;;
31386;SDS011;69978;50.096;8.448;2024-03-06T02:58:43;4.00;;;1.10;;
31386;SDS011;69978;50.096;8.448;2024-03-06T03:01:09;3.65;;;1.20;;
31386;SDS011;69978;50.096;8.448;2024-03-06T03:03:35;4.38;;;1.15;;
31386;SDS011;69978;50.096;8.448;2024-03-06T03:06:01;6.63;;;1.30;;
31386;SDS011;69978;50.096;8.448;2024-03-06T03:08:27;4.82;;;1.40;;
31386;SDS011;69978;50.096;8.448;2024-03-06T03:10:52;2.78;;;1.20;;
31386;SDS011;69978;50.096;8.448;2024-03-06T03:13:18;5.15;;;1.63;;
31386;SDS011;69978;50.096;8.448;2024-03-06T03:15:43;3.05;;;1.13;;
31386;SDS011;69978;50.096;8.448;2024-03-06T03:18:09;2.78;;;1.23;;
31386;SDS011;69978;50.096;8.448;2024-03-06T03:20:34;3.53;;;1.05;;
31386;SDS011;69978;50.096;8.448;2024-03-06T03:23:01;4.13;;;1.67;;
31386;SDS011;69978;50.096;8.448;2024-03-06T03:25:27;3.70;;;1.40;;
31386;SDS011;69978;50.096;8.448;2024-03-06T03:27:52;5.25;;;1.70;;
31386;SDS011;69978;50.096;8.448;2024-03-06T03:30:18;4.15;;;1.40;;
31386;SDS011;69978;50.096;8.448;2024-03-06T03:32:46;5.45;;;2.00;;
31386;SDS011;69978;50.096;8.448;2024-03-06T03:35:15;4.45;;;1.98;;
31386;SDS011;69978;50.096;8.448;2024-03-06T03:37:42;4.60;;;1.70;;
31386;SDS011;69978;50.096;8.448;2024-03-06T03:40:08;4.30;;;1.48;;
31386;SDS011;69978;50.096;8.448;2024-03-06T03:42:36;4.75;;;1.52;;
31386;SDS011;69978;50.096;8.448;2024-03-06T03:45:03;3.75;;;1.50;;
31386;SDS011;69978;50.096;8.448;2024-03-06T03:47:29;6.13;;;1.83;;
31386;SDS011;69978;50.096;8.448;2024-03-06T03:49:55;6.38;;;1.42;;
31386;SDS011;69978;50.096;8.448;2024-03-06T03:52:21;4.47;;;1.95;;
31386;SDS011;69978;50.096;8.448;2024-03-06T03:54:47;3.75;;;1.27;;
31386;SDS011;69978;50.096;8.448;2024-03-06T03:57:13;3.95;;;1.50;;
31386;SDS011;69978;50.096;8.448;2024-03-06T03:59:39;2.63;;;1.10;;
31386;SDS011;69978;50.096;8.448;2024-03-06T04:02:06;5.97;;;1.33;;
31386;SDS011;69978;50.096;8.448;2024-03-06T04:04:31;4.60;;;1.48;;
31386;SDS011;69978;50.096;8.448;2024-03-06T04:06:58;4.97;;;1.23;;
31386;SDS011;69978;50.096;8.448;2024-03-06T04:09:26;2.00;;;0.90;;
31386;SDS011;69978;50.096;8.448;2024-03-06T04:11:52;5.15;;;1.65;;
31386;SDS011;69978;50.096;8.448;2024-03-06T04:14:18;2.88;;;1.20;;
31386;SDS011;69978;50.096;8.448;2024-03-06T04:16:45;6.30;;;1.50;;
31386;SDS011;69978;50.096;8.448;2024-03-06T04:19:11;4.95;;;1.20;;
31386;SDS011;69978;50.096;8.448;2024-03-06T04:21:40;3.30;;;1.35;;
31386;SDS011;69978;50.096;8.448;2024-03-06T04:24:07;2.40;;;1.20;;
31386;SDS011;69978;50.096;8.448;2024-03-06T04:26:33;4.65;;;1.52;;
31386;SDS011;69978;50.096;8.448;2024-03-06T04:28:58;3.53;;;1.63;;
31386;SDS011;69978;50.096;8.448;2024-03-06T04:31:24;3.63;;;1.55;;
31386;SDS011;69978;50.096;8.448;2024-03-06T04:33:50;3.50;;;1.40;;
31386;SDS011;69978;50.096;8.448;2024-03-06T04:36:15;5.10;;;1.85;;
31386;SDS011;69978;50.096;8.448;2024-03-06T04:38:41;4.57;;;1.58;;
31386;SDS011;69978;50.096;8.448;2024-03-06T04:41:07;6.30;;;1.70;;
31386;SDS011;69978;50.096;8.448;2024-03-06T04:43:33;4.97;;;1.80;;
31386;SDS011;69978;50.096;8.448;2024-03-06T04:45:59;6.05;;;1.63;;
31386;SDS011;69978;50.096;8.448;2024-03-06T04:48:24;4.40;;;1.70;;
31386;SDS011;69978;50.096;8.448;2024-03-06T04:50:50;6.00;;;2.33;;
31386;SDS011;69978;50.096;8.448;2024-03-06T04:53:16;5.65;;;1.75;;
31386;SDS011;69978;50.096;8.448;2024-03-06T04:55:42;7.32;;;1.95;;
31386;SDS011;69978;50.096;8.448;2024-03-06T04:58:08;3.75;;;1.65;;
31386;SDS011;69978;50.096;8.448;2024-03-06T05:00:33;6.32;;;2.10;;
31386;SDS011;69978;50.096;8.448;2024-03-06T05:02:59;4.30;;;1.80;;
31386;SDS011;69978;50.096;8.448;2024-03-06T05:05:25;4.50;;;1.58;;
31386;SDS011;69978;50.096;8.448;2024-03-06T05:07:51;2.85;;;1.35;;
31386;SDS011;69978;50.096;8.448;2024-03-06T05:10:17;4.97;;;1.70;;
31386;SDS011;69978;50.096;8.448;2024-03-06T05:12:43;5.47;;;1.63;;
31386;SDS011;69978;50.096;8.448;2024-03-06T05:15:09;4.53;;;1.65;;
31386;SDS011;69978;50.096;8.448;2024-03-06T05:17:35;4.32;;;1.70;;
31386;SDS011;69978;50.096;8.448;2024-03-06T05:20:01;3.47;;;1.50;;
31386;SDS011;69978;50.096;8.448;2024-03-06T05:22:29;4.65;;;1.73;;
31386;SDS011;69978;50.096;8.448;2024-03-06T05:24:55;4.88;;;1.60;;
31386;SDS011;69978;50.096;8.448;2024-03-06T05:27:21;5.85;;;1.60;;
31386;SDS011;69978;50.096;8.448;2024-03-06T05:29:47;6.28;;;1.75;;
31386;SDS011;69978;50.096;8.448;2024-03-06T05:32:12;5.10;;;1.83;;
31386;SDS011;69978;50.096;8.448;2024-03-06T05:34:38;3.80;;;1.85;;
31386;SDS011;69978;50.096;8.448;2024-03-06T05:37:04;5.20;;;1.90;;
31386;SDS011;69978;50.096;8.448;2024-03-06T05:39:30;5.47;;;1.90;;
31386;SDS011;69978;50.096;8.448;2024-03-06T05:42:00;6.57;;;2.70;;
31386;SDS011;69978;50.096;8.448;2024-03-06T05:44:29;5.85;;;2.55;;
31386;SDS011;69978;50.096;8.448;2024-03-06T05:46:57;6.65;;;2.42;;
31386;SDS011;69978;50.096;8.448;2024-03-06T05:49:23;6.28;;;1.88;;
31386;SDS011;69978;50.096;8.448;2024-03-06T05:51:48;5.10;;;2.30;;
31386;SDS011;69978;50.096;8.448;2024-03-06T05:54:14;5.72;;;2.05;;
31386;SDS011;69978;50.096;8.448;2024-03-06T05:56:40;9.38;;;2.13;;
31386;SDS011;69978;50.096;8.448;2024-03-06T05:59:07;5.20;;;1.92;;
31386;SDS011;69978;50.096;8.448;2024-03-06T06:01:33;6.18;;;1.95;;
31386;SDS011;69978;50.096;8.448;2024-03-06T06:03:59;4.78;;;2.17;;
31386;SDS011;69978;50.096;8.448;2024-03-06T06:06:25;7.68;;;1.95;;
31386;SDS011;69978;50.096;8.448;2024-03-06T06:08:51;5.13;;;2.33;;
31386;SDS011;69978;50.096;8.448;2024-03-06T06:11:17;7.72;;;2.47;;
31386;SDS011;69978;50.096;8.448;2024-03-06T06:13:42;7.53;;;2.60;;
31386;SDS011;69978;50.096;8.448;2024-03-06T06:16:08;8.43;;;2.72;;
31386;SDS011;69978;50.096;8.448;2024-03-06T06:18:34;8.70;;;2.33;;
31386;SDS011;69978;50.096;8.448;2024-03-06T06:20:59;9.15;;;2.33;;
31386;SDS011;69978;50.096;8.448;2024-03-06T06:23:25;5.82;;;2.45;;
31386;SDS011;69978;50.096;8.448;2024-03-06T06:25:51;7.80;;;2.42;;
31386;SDS011;69978;50.096;8.448;2024-03-06T06:28:16;7.30;;;2.25;;
31386;SDS011;69978;50.096;8.448;2024-03-06T06:30:42;9.70;;;2.95;;
31386;SDS011;69978;50.096;8.448;2024-03-06T06:33:07;10.57;;;2.78;;
31386;SDS011;69978;50.096;8.448;2024-03-06T06:35:33;7.72;;;2.83;;
31386;SDS011;69978;50.096;8.448;2024-03-06T06:38:02;8.75;;;2.75;;
31386;SDS011;69978;50.096;8.448;2024-03-06T06:40:29;6.95;;;2.78;;
31386;SDS011;69978;50.096;8.448;2024-03-06T06:42:55;6.72;;;2.63;;
31386;SDS011;69978;50.096;8.448;2024-03-06T06:45:21;9.80;;;2.72;;
31386;SDS011;69978;50.096;8.448;2024-03-06T06:47:47;9.48;;;3.20;;
31386;SDS011;69978;50.096;8.448;2024-03-06T06:50:14;7.50;;;2.88;;
31386;SDS011;69978;50.096;8.448;2024-03-06T06:52:40;7.85;;;3.15;;
31386;SDS011;69978;50.096;8.448;2024-03-06T06:55:06;13.40;;;3.28;;
31386;SDS011;69978;50.096;8.448;2024-03-06T06:57:34;9.52;;;3.15;;
31386;SDS011;69978;50.096;8.448;2024-03-06T07:00:00;6.53;;;2.92;;
31386;SDS011;69978;50.096;8.448;2024-03-06T07:02:35;5.95;;;2.53;;
31386;SDS011;69978;50.096;8.448;2024-03-06T07:05:05;8.50;;;3.17;;
31386;SDS011;69978;50.096;8.448;2024-03-06T07:07:30;9.88;;;3.40;;
31386;SDS011;69978;50.096;8.448;2024-03-06T07:09:56;12.00;;;3.63;;
31386;SDS011;69978;50.096;8.448;2024-03-06T07:12:22;9.15;;;3.10;;
31386;SDS011;69978;50.096;8.448;2024-03-06T07:14:48;8.95;;;2.80;;
31386;SDS011;69978;50.096;8.448;2024-03-06T07:17:14;8.60;;;3.10;;
31386;SDS011;69978;50.096;8.448;2024-03-06T07:19:39;9.32;;;3.40;;
31386;SDS011;69978;50.096;8.448;2024-03-06T07:22:05;8.27;;;2.92;;
31386;SDS011;69978;50.096;8.448;2024-03-06T07:24:30;11.40;;;3.40;;
31386;SDS011;69978;50.096;8.448;2024-03-06T07:26:56;8.38;;;3.13;;
31386;SDS011;69978;50.096;8.448;2024-03-06T07:29:21;8.15;;;3.28;;
31386;SDS011;69978;50.096;8.448;2024-03-06T07:31:47;9.63;;;3.13;;
31386;SDS011;69978;50.096;8.448;2024-03-06T07:34:13;8.35;;;3.50;;
31386;SDS011;69978;50.096;8.448;2024-03-06T07:36:39;10.50;;;3.75;;
31386;SDS011;69978;50.096;8.448;2024-03-06T07:39:05;10.52;;;3.45;;
31386;SDS011;69978;50.096;8.448;2024-03-06T07:41:32;12.07;;;3.78;;
31386;SDS011;69978;50.096;8.448;2024-03-06T07:43:58;13.70;;;4.13;;
31386;SDS011;69978;50.096;8.448;2024-03-06T07:46:24;15.52;;;4.20;;
31386;SDS011;69978;50.096;8.448;2024-03-06T07:48:50;9.77;;;4.05;;
31386;SDS011;69978;50.096;8.448;2024-03-06T07:51:16;8.50;;;3.30;;
31386;SDS011;69978;50.096;8.448;2024-03-06T07:53:42;13.40;;;4.10;;
31386;SDS011;69978;50.096;8.448;2024-03-06T07:56:10;12.80;;;4.00;;
31386;SDS011;69978;50.096;8.448;2024-03-06T07:58:39;14.82;;;3.83;;
31386;SDS011;69978;50.096;8.448;2024-03-06T08:01:05;13.75;;;3.58;;
31386;SDS011;69978;50.096;8.448;2024-03-06T08:03:32;10.15;;;3.60;;
31386;SDS011;69978;50.096;8.448;2024-03-06T08:05:58;10.32;;;3.53;;
31386;SDS011;69978;50.096;8.448;2024-03-06T08:08:24;8.07;;;3.03;;
31386;SDS011;69978;50.096;8.448;2024-03-06T08:10:50;11.23;;;3.10;;
31386;SDS011;69978;50.096;8.448;2024-03-06T08:13:15;12.93;;;3.47;;
31386;SDS011;69978;50.096;8.448;2024-03-06T08:15:41;13.02;;;3.85;;
31386;SDS011;69978;50.096;8.448;2024-03-06T08:18:09;10.25;;;3.47;;
31386;SDS011;69978;50.096;8.448;2024-03-06T08:20:34;9.13;;;3.47;;
31386;SDS011;69978;50.096;8.448;2024-03-06T08:23:00;9.32;;;3.67;;
31386;SDS011;69978;50.096;8.448;2024-03-06T08:25:26;7.30;;;3.08;;
31386;SDS011;69978;50.096;8.448;2024-03-06T08:27:52;14.43;;;3.72;;
31386;SDS011;69978;50.096;8.448;2024-03-06T08:30:17;10.10;;;3.65;;
31386;SDS011;69978;50.096;8.448;2024-03-06T08:32:43;9.77;;;3.67;;
31386;SDS011;69978;50.096;8.448;2024-03-06T08:35:12;9.45;;;3.83;;
31386;SDS011;69978;50.096;8.448;2024-03-06T08:37:40;9.38;;;3.15;;
31386;SDS011;69978;50.096;8.448;2024-03-06T08:40:07;12.40;;;3.65;;
31386;SDS011;69978;50.096;8.448;2024-03-06T08:42:35;11.88;;;3.95;;
31386;SDS011;69978;50.096;8.448;2024-03-06T08:45:01;12.15;;;4.88;;
31386;SDS011;69978;50.096;8.448;2024-03-06T08:47:27;12.57;;;4.05;;
31386;SDS011;69978;50.096;8.448;2024-03-06T08:49:53;10.52;;;4.20;;
31386;SDS011;69978;50.096;8.448;2024-03-06T08:52:19;11.50;;;3.85;;
31386;SDS011;69978;50.096;8.448;2024-03-06T08:54:45;9.30;;;4.38;;
31386;SDS011;69978;50.096;8.448;2024-03-06T08:57:11;12.23;;;4.78;;
31386;SDS011;69978;50.096;8.448;2024-03-06T08:59:37;12.93;;;5.28;;
31386;SDS011;69978;50.096;8.448;2024-03-06T09:02:15;14.85;;;5.55;;
31386;SDS011;69978;50.096;8.448;2024-03-06T09:04:44;20.35;;;5.32;;
31386;SDS011;69978;50.096;8.448;2024-03-06T09:07:10;15.25;;;5.25;;
31386;SDS011;69978;50.096;8.448;2024-03-06T09:09:36;14.20;;;5.60;;
31386;SDS011;69978;50.096;8.448;2024-03-06T09:12:03;13.48;;;5.18;;
31386;SDS011;69978;50.096;8.448;2024-03-06T09:14:30;11.63;;;5.75;;
31386;SDS011;69978;50.096;8.448;2024-03-06T09:16:59;13.82;;;5.85;;
31386;SDS011;69978;50.096;8.448;2024-03-06T09:19:25;16.65;;;6.13;;
31386;SDS011;69978;50.096;8.448;2024-03-06T09:21:51;14.55;;;5.55;;
31386;SDS011;69978;50.096;8.448;2024-03-06T09:24:17;15.75;;;5.70;;
31386;SDS011;69978;50.096;8.448;2024-03-06T09:26:45;14.63;;;5.40;;
31386;SDS011;69978;50.096;8.448;2024-03-06T09:29:12;17.45;;;5.80;;
31386;SDS011;69978;50.096;8.448;2024-03-06T09:31:38;15.05;;;6.05;;
31386;SDS011;69978;50.096;8.448;2024-03-06T09:34:03;13.30;;;5.40;;
31386;SDS011;69978;50.096;8.448;2024-03-06T09:36:29;15.95;;;5.72;;
31386;SDS011;69978;50.096;8.448;2024-03-06T09:38:55;12.05;;;5.10;;
31386;SDS011;69978;50.096;8.448;2024-03-06T09:41:21;14.48;;;5.35;;
31386;SDS011;69978;50.096;8.448;2024-03-06T09:43:47;13.55;;;5.13;;
31386;SDS011;69978;50.096;8.448;2024-03-06T09:46:13;15.38;;;5.80;;
31386;SDS011;69978;50.096;8.448;2024-03-06T09:48:46;12.43;;;5.30;;
31386;SDS011;69978;50.096;8.448;2024-03-06T09:51:12;16.98;;;5.70;;
31386;SDS011;69978;50.096;8.448;2024-03-06T09:53:39;12.63;;;5.45;;
31386;SDS011;69978;50.096;8.448;2024-03-06T09:56:05;11.65;;;4.97;;
31386;SDS011;69978;50.096;8.448;2024-03-06T09:58:31;14.70;;;5.28;;
31386;SDS011;69978;50.096;8.448;2024-03-06T10:01:01;11.18;;;4.97;;
31386;SDS011;69978;50.096;8.448;2024-03-06T10:03:32;14.13;;;5.63;;
31386;SDS011;69978;50.096;8.448;2024-03-06T10:05:58;13.90;;;5.70;;
31386;SDS011;69978;50.096;8.448;2024-03-06T10:08:24;16.15;;;5.35;;
31386;SDS011;69978;50.096;8.448;2024-03-06T10:10:51;15.45;;;6.22;;
31386;SDS011;69978;50.096;8.448;2024-03-06T10:13:17;17.13;;;6.32;;
31386;SDS011;69978;50.096;8.448;2024-03-06T10:16:04;13.68;;;5.53;;
31386;SDS011;69978;50.096;8.448;2024-03-06T10:18:33;12.70;;;5.68;;
31386;SDS011;69978;50.096;8.448;2024-03-06T10:20:59;13.10;;;5.10;;
31386;SDS011;69978;50.096;8.448;2024-03-06T10:23:26;14.32;;;5.80;;
31386;SDS011;69978;50.096;8.448;2024-03-06T10:25:54;14.68;;;5.85;;
31386;SDS011;69978;50.096;8.448;2024-03-06T10:28:20;17.70;;;5.93;;
31386;SDS011;69978;50.096;8.448;2024-03-06T10:30:47;10.90;;;4.95;;
31386;SDS011;69978;50.096;8.448;2024-03-06T10:33:14;14.05;;;5.45;;
31386;SDS011;69978;50.096;8.448;2024-03-06T10:35:45;14.45;;;5.75;;
31386;SDS011;69978;50.096;8.448;2024-03-06T10:38:13;12.68;;;5.50;;
31386;SDS011;69978;50.096;8.448;2024-03-06T10:40:42;13.70;;;5.55;;
31386;SDS011;69978;50.096;8.448;2024-03-06T10:43:09;12.77;;;5.95;;
31386;SDS011;69978;50.096;8.448;2024-03-06T10:45:48;12.10;;;5.97;;
31386;SDS011;69978;50.096;8.448;2024-03-06T10:48:16;12.02;;;5.60;;
31386;SDS011;69978;50.096;8.448;2024-03-06T10:50:43;17.63;;;6.28;;
31386;SDS011;69978;50.096;8.448;2024-03-06T10:53:13;17.55;;;6.90;;
31386;SDS011;69978;50.096;8.448;2024-03-06T10:55:39;13.90;;;6.35;;
31386;SDS011;69978;50.096;8.448;2024-03-06T10:58:09;14.63;;;7.28;;
31386;SDS011;69978;50.096;8.448;2024-03-06T11:00:36;15.95;;;6.88;;
31386;SDS011;69978;50.096;8.448;2024-03-06T11:03:08;16.25;;;7.10;;
31386;SDS011;69978;50.096;8.448;2024-03-06T11:05:38;14.57;;;6.82;;
31386;SDS011;69978;50.096;8.448;2024-03-06T11:08:14;16.08;;;6.45;;
31386;SDS011;69978;50.096;8.448;2024-03-06T11:10:42;13.63;;;6.07;;
31386;SDS011;69978;50.096;8.448;2024-03-06T11:15:51;17.35;;;7.15;;
31386;SDS011;69978;50.096;8.448;2024-03-06T11:20:59;13.23;;;6.00;;
31386;SDS011;69978;50.096;8.448;2024-03-06T11:23:27;17.27;;;6.60;;
31386;SDS011;69978;50.096;8.448;2024-03-06T11:28:22;16.88;;;7.22;;
31386;SDS011;69978;50.096;8.448;2024-03-06T11:30:56;17.73;;;7.70;;
31386;SDS011;69978;50.096;8.448;2024-03-06T11:33:35;16.92;;;7.13;;
31386;SDS011;69978;50.096;8.448;2024-03-06T11:44:15;13.48;;;5.57;;
31386;SDS011;69978;50.096;8.448;2024-03-06T11:46:56;12.32;;;5.78;;
31386;SDS011;69978;50.096;8.448;2024-03-06T11:49:24;12.43;;;5.95;;
31386;SDS011;69978;50.096;8.448;2024-03-06T11:51:51;15.75;;;4.95;;
31386;SDS011;69978;50.096;8.448;2024-03-06T11:54:17;13.23;;;5.43;;
31386;SDS011;69978;50.096;8.448;2024-03-06T11:56:49;13.13;;;5.67;;
31386;SDS011;69978;50.096;8.448;2024-03-06T11:59:16;11.77;;;5.53;;
31386;SDS011;69978;50.096;8.448;2024-03-06T12:01:42;11.50;;;5.47;;
31386;SDS011;69978;50.096;8.448;2024-03-06T12:04:08;13.45;;;5.53;;
31386;SDS011;69978;50.096;8.448;2024-03-06T12:06:35;16.73;;;6.40;;
31386;SDS011;69978;50.096;8.448;2024-03-06T12:09:02;12.20;;;5.63;;
31386;SDS011;69978;50.096;8.448;2024-03-06T12:11:28;12.23;;;5.68;;
31386;SDS011;69978;50.096;8.448;2024-03-06T12:13:55;12.68;;;5.45;;
31386;SDS011;69978;50.096;8.448;2024-03-06T12:16:21;12.60;;;6.00;;
31386;SDS011;69978;50.096;8.448;2024-03-06T12:18:54;13.30;;;6.03;;
31386;SDS011;69978;50.096;8.448;2024-03-06T12:21:22;14.40;;;6.53;;
31386;SDS011;69978;50.096;8.448;2024-03-06T12:24:02;15.98;;;5.82;;
31386;SDS011;69978;50.096;8.448;2024-03-06T12:26:29;14.27;;;6.00;;
31386;SDS011;69978;50.096;8.448;2024-03-06T12:29:03;11.57;;;5.28;;
31386;SDS011;69978;50.096;8.448;2024-03-06T12:31:31;12.95;;;6.03;;
31386;SDS011;69978;50.096;8.448;2024-03-06T12:33:57;14.50;;;5.95;;
31386;SDS011;69978;50.096;8.448;2024-03-06T12:36:27;12.75;;;6.00;;
31386;SDS011;69978;50.096;8.448;2024-03-06T12:38:55;11.48;;;5.60;;
31386;SDS011;69978;50.096;8.448;2024-03-06T12:41:21;13.50;;;6.22;;
31386;SDS011;69978;50.096;8.448;2024-03-06T12:43:47;14.32;;;5.65;;
31386;SDS011;69978;50.096;8.448;2024-03-06T12:46:12;14.68;;;5.72;;
31386;SDS011;69978;50.096;8.448;2024-03-06T12:48:38;17.20;;;5.28;;
31386;SDS011;69978;50.096;8.448;2024-03-06T12:51:03;11.60;;;5.40;;
31386;SDS011;69978;50.096;8.448;2024-03-06T12:53:32;12.60;;;5.82;;
31386;SDS011;69978;50.096;8.448;2024-03-06T12:56:00;13.38;;;6.18;;
31386;SDS011;69978;50.096;8.448;2024-03-06T12:58:25;13.32;;;6.00;;
31386;SDS011;69978;50.096;8.448;2024-03-06T13:00:51;10.30;;;5.13;;
31386;SDS011;69978;50.096;8.448;2024-03-06T13:03:17;13.20;;;5.80;;
31386;SDS011;69978;50.096;8.448;2024-03-06T13:05:43;12.85;;;5.90;;
31386;SDS011;69978;50.096;8.448;2024-03-06T13:08:10;10.95;;;4.68;;
31386;SDS011;69978;50.096;8.448;2024-03-06T13:10:39;11.75;;;5.22;;
31386;SDS011;69978;50.096;8.448;2024-03-06T13:13:05;11.20;;;4.70;;
31386;SDS011;69978;50.096;8.448;2024-03-06T13:15:32;11.95;;;4.90;;
31386;SDS011;69978;50.096;8.448;2024-03-06T13:17:59;9.90;;;4.70;;
31386;SDS011;69978;50.096;8.448;2024-03-06T13:20:28;8.82;;;4.03;;
31386;SDS011;69978;50.096;8.448;2024-03-06T13:22:54;9.30;;;4.03;;
31386;SDS011;69978;50.096;8.448;2024-03-06T13:25:20;9.95;;;3.88;;
31386;SDS011;69978;50.096;8.448;2024-03-06T13:27:46;7.47;;;3.63;;
31386;SDS011;69978;50.096;8.448;2024-03-06T13:30:11;9.95;;;3.83;;
31386;SDS011;69978;50.096;8.448;2024-03-06T13:32:40;11.38;;;4.00;;
31386;SDS011;69978;50.096;8.448;2024-03-06T13:35:07;10.55;;;4.95;;
31386;SDS011;69978;50.096;8.448;2024-03-06T13:37:38;13.27;;;5.97;;
31386;SDS011;69978;50.096;8.448;2024-03-06T13:40:05;14.50;;;6.20;;
31386;SDS011;69978;50.096;8.448;2024-03-06T13:42:32;12.75;;;5.65;;
31386;SDS011;69978;50.096;8.448;2024-03-06T13:44:58;11.85;;;5.30;;
31386;SDS011;69978;50.096;8.448;2024-03-06T13:47:24;13.77;;;5.75;;
31386;SDS011;69978;50.096;8.448;2024-03-06T13:49:50;13.60;;;5.32;;
31386;SDS011;69978;50.096;8.448;2024-03-06T13:52:16;12.43;;;5.45;;
31386;SDS011;69978;50.096;8.448;2024-03-06T13:54:45;14.80;;;5.75;;
31386;SDS011;69978;50.096;8.448;2024-03-06T13:57:12;13.00;;;5.80;;
31386;SDS011;69978;50.096;8.448;2024-03-06T13:59:39;15.57;;;6.78;;
31386;SDS011;69978;50.096;8.448;2024-03-06T14:02:05;18.70;;;6.82;;
31386;SDS011;69978;50.096;8.448;2024-03-06T14:04:31;18.30;;;7.40;;
31386;SDS011;69978;50.096;8.448;2024-03-06T14:06:57;15.30;;;6.43;;
31386;SDS011;69978;50.096;8.448;2024-03-06T14:09:24;14.30;;;5.97;;
31386;SDS011;69978;50.096;8.448;2024-03-06T14:11:50;14.75;;;6.13;;
31386;SDS011;69978;50.096;8.448;2024-03-06T14:14:16;14.10;;;6.15;;
31386;SDS011;69978;50.096;8.448;2024-03-06T14:16:42;13.40;;;6.05;;
31386;SDS011;69978;50.096;8.448;2024-03-06T14:19:08;12.57;;;5.53;;
31386;SDS011;69978;50.096;8.448;2024-03-06T14:21:34;14.27;;;5.85;;
31386;SDS011;69978;50.096;8.448;2024-03-06T14:24:00;14.80;;;6.00;;
31386;SDS011;69978;50.096;8.448;2024-03-06T14:26:30;14.75;;;6.28;;
31386;SDS011;69978;50.096;8.448;2024-03-06T14:28:56;17.45;;;6.45;;
31386;SDS011;69978;50.096;8.448;2024-03-06T14:31:22;16.88;;;7.10;;
31386;SDS011;69978;50.096;8.448;2024-03-06T14:33:48;16.73;;;6.55;;
31386;SDS011;69978;50.096;8.448;2024-03-06T14:36:15;15.27;;;6.47;;
31386;SDS011;69978;50.096;8.448;2024-03-06T14:38:41;16.63;;;6.30;;
31386;SDS011;69978;50.096;8.448;2024-03-06T14:41:07;13.52;;;6.07;;
31386;SDS011;69978;50.096;8.448;2024-03-06T14:43:34;14.88;;;5.60;;
31386;SDS011;69978;50.096;8.448;2024-03-06T14:46:00;15.93;;;6.28;;
31386;SDS011;69978;50.096;8.448;2024-03-06T14:48:26;12.23;;;5.40;;
31386;SDS011;69978;50.096;8.448;2024-03-06T14:50:52;10.75;;;4.70;;
31386;SDS011;69978;50.096;8.448;2024-03-06T14:53:17;12.80;;;4.78;;